Watford Cy, North Dakota
Current Conditions -  °F | °C
As of 2:15 PM on Wednesday 28 Jan 2015 (Local Time) from KS25 Reporting Station
Haze Haze  
Wind Chill: 21°   Ceiling: 600
Heat Index: 32°   Visibility: 5mi
Dew Point: 30°   Wind: 17mph
Humidity: 93%   Direction: 320°NW
Pressure: 30"   Gusts: 23mph
Location:  47.8267°N, 103.206°W
Report Text: KS25 282015Z AUTO 32015G20KT 5SM BR OVC006 00/M01 A3000 RMK AO2
Loading
Personal Weather Stations






























Interactive Weather Map New forecast layout! Learn more

10-Day Weather Forecast

Advertisements
Track Severe Weather on mobile